Time;durP1;ratioP1;P1;durP2;ratioP2;P2;SDS_P1;SDS_P2;PMS_P1;PMS_P2;Temp;Humidity;BMP_temperature;BMP_pressure;BME280_temperature;BME280_humidity;BME280_pressure;Samples;Min_cycle;Max_cycle;Signal;HPM_P1;HPM_P2
2023/10/18 00:01:39;;;;;;;16.00;9.30;;;;;;;10.63;70.62;101430.94;5030902;28;20108;-44
2023/10/18 00:04:04;;;;;;;15.77;9.32;;;;;;;10.77;69.73;101440.84;5029812;28;20029;-49
2023/10/18 00:06:31;;;;;;;17.38;9.57;;;;;;;10.71;69.93;101434.63;5031134;28;20025;-46
2023/10/18 00:09:38;;;;;;;14.25;9.18;;;;;;;10.56;70.32;101429.94;5030699;28;20048;-50
2023/10/18 00:11:46;;;;;;;16.55;9.73;;;;;;;10.85;69.33;101426.25;5030319;28;20029;-50
2023/10/18 00:14:11;;;;;;;14.80;9.35;;;;;;;10.79;69.32;101418.31;5030042;28;20045;-46
2023/10/18 00:16:37;;;;;;;14.80;9.35;;;;;;;10.80;68.52;101422.63;5030356;28;20076;-49
2023/10/18 00:19:02;;;;;;;16.48;9.05;;;;;;;10.81;69.15;101413.09;5030432;28;20119;-46
2023/10/18 00:21:27;;;;;;;14.70;9.52;;;;;;;10.53;70.08;101412.53;5030463;28;20100;-48
2023/10/18 00:23:52;;;;;;;16.50;9.80;;;;;;;10.80;69.17;101409.59;5030257;28;20071;-45
2023/10/18 00:26:18;;;;;;;15.02;9.20;;;;;;;10.59;69.66;101406.56;5029969;28;20045;-45
2023/10/18 00:28:43;;;;;;;15.18;9.50;;;;;;;10.51;69.84;101397.69;5030166;28;20056;-46
2023/10/18 00:31:17;;;;;;;13.80;9.05;;;;;;;10.65;70.27;101401.47;5029506;28;20037;-47
2023/10/18 00:33:44;;;;;;;16.00;9.30;;;;;;;10.75;69.69;101394.72;5029915;28;20040;-47
2023/10/18 00:36:16;;;;;;;16.67;9.20;;;;;;;10.77;69.04;101401.72;5029583;28;20079;-44
2023/10/18 00:38:42;;;;;;;15.48;9.20;;;;;;;10.62;69.75;101388.34;5030192;28;20038;-46
2023/10/18 00:41:15;;;;;;;17.52;9.98;;;;;;;10.70;69.20;101394.63;5029467;28;20037;-48
2023/10/18 00:43:44;;;;;;;14.77;9.20;;;;;;;10.25;70.58;101399.69;5029814;28;20095;-46
2023/10/18 00:46:10;;;;;;;16.58;9.45;;;;;;;10.70;69.35;101389.41;5029289;28;20040;-45
2023/10/18 00:48:35;;;;;;;14.98;9.23;;;;;;;10.48;69.60;101390.69;5030105;28;20037;-46
2023/10/18 00:51:01;;;;;;;14.70;9.30;;;;;;;10.61;69.42;101391.84;5029489;28;20044;-45
2023/10/18 00:53:31;;;;;;;15.18;9.15;;;;;;;10.78;68.39;101390.47;5029516;28;20431;-45
2023/10/18 00:55:59;;;;;;;14.52;8.75;;;;;;;10.61;69.28;101394.44;5029743;28;20427;-48
2023/10/18 00:58:24;;;;;;;12.80;8.57;;;;;;;10.81;68.34;101381.78;5029683;28;20061;-45
2023/10/18 01:00:51;;;;;;;13.65;9.27;;;;;;;10.56;68.97;101386.50;5029811;28;20615;-43
2023/10/18 01:03:29;;;;;;;17.20;9.48;;;;;;;10.57;69.25;101385.66;5027461;28;20030;-48
2023/10/18 01:06:04;;;;;;;17.08;9.52;;;;;;;10.73;69.07;101383.38;5030031;28;20040;-45
2023/10/18 01:08:29;;;;;;;19.85;9.73;;;;;;;10.46;69.79;101389.75;5034875;28;20068;-48
2023/10/18 01:11:02;;;;;;;14.15;8.98;;;;;;;10.75;68.70;101387.78;5041293;28;20037;-51
2023/10/18 01:13:27;;;;;;;15.75;8.85;;;;;;;10.78;68.59;101366.97;5036463;28;20052;-49
2023/10/18 01:15:52;;;;;;;14.48;8.60;;;;;;;10.69;69.14;101376.31;5028961;28;20029;-45
2023/10/18 01:18:18;;;;;;;14.75;9.15;;;;;;;10.62;68.65;101367.50;5030276;28;20044;-46
2023/10/18 01:20:46;;;;;;;13.35;8.88;;;;;;;10.61;68.94;101350.13;5030477;28;20025;-46
2023/10/18 01:23:11;;;;;;;14.63;9.20;;;;;;;10.52;68.98;101358.63;5029646;28;20559;-49
2023/10/18 01:25:37;;;;;;;15.13;8.90;;;;;;;10.14;70.81;101352.53;5030205;28;20121;-46
2023/10/18 01:28:05;;;;;;;15.43;8.65;;;;;;;10.73;68.32;101358.19;5029606;28;20034;-46
2023/10/18 01:30:31;;;;;;;15.18;8.73;;;;;;;10.71;67.97;101346.84;5029070;28;20075;-47
2023/10/18 01:32:56;;;;;;;15.75;8.95;;;;;;;10.85;67.81;101345.41;5029099;28;20073;-48
2023/10/18 01:35:21;;;;;;;15.05;9.30;;;;;;;10.57;68.66;101343.94;5028706;28;20148;-46
2023/10/18 01:37:49;;;;;;;14.15;8.90;;;;;;;10.82;67.24;101332.28;5029217;28;20026;-48
2023/10/18 01:40:21;;;;;;;13.50;8.90;;;;;;;10.63;67.91;101332.75;5028877;28;20051;-45
2023/10/18 01:42:56;;;;;;;14.57;8.93;;;;;;;10.74;67.59;101330.34;5029225;28;20514;-47
2023/10/18 01:45:22;;;;;;;12.77;8.55;;;;;;;10.77;67.82;101333.03;5028926;28;20033;-47
2023/10/18 01:47:49;;;;;;;14.02;8.95;;;;;;;10.57;68.23;101330.03;5029342;28;20036;-48
2023/10/18 01:50:15;;;;;;;16.25;8.82;;;;;;;10.65;68.10;101322.38;5028747;28;20033;-46
2023/10/18 01:52:42;;;;;;;15.35;8.90;;;;;;;10.61;68.40;101315.34;5028793;28;20041;-45
2023/10/18 01:55:09;;;;;;;13.73;8.88;;;;;;;10.65;67.48;101307.59;5028371;28;20037;-45
2023/10/18 01:57:35;;;;;;;15.70;8.80;;;;;;;10.63;67.65;101311.91;5029167;28;20067;-46
2023/10/18 02:00:00;;;;;;;15.40;8.95;;;;;;;10.48;68.42;101304.66;5028523;28;20061;-45
2023/10/18 02:02:26;;;;;;;15.02;8.85;;;;;;;10.55;67.56;101301.31;5028958;28;20120;-50
2023/10/18 02:04:54;;;;;;;14.25;8.68;;;;;;;10.58;67.35;101304.00;5028912;28;20036;-48
2023/10/18 02:07:19;;;;;;;14.25;8.65;;;;;;;10.41;68.22;101296.69;5028651;28;20419;-46
2023/10/18 02:10:03;;;;;;;13.73;8.35;;;;;;;10.17;68.85;101302.25;5029045;28;20034;-48
2023/10/18 02:12:29;;;;;;;14.10;8.88;;;;;;;10.48;68.47;101296.84;5028476;28;20040;-50
2023/10/18 02:14:55;;;;;;;13.73;8.43;;;;;;;10.53;67.90;101295.22;5028755;28;20612;-45
2023/10/18 02:17:21;;;;;;;15.15;9.15;;;;;;;10.57;67.51;101288.31;5028628;28;20033;-48
2023/10/18 02:19:48;;;;;;;13.95;8.45;;;;;;;10.27;68.97;101293.78;5029218;28;20030;-46
2023/10/18 02:22:16;;;;;;;14.60;8.65;;;;;;;10.60;67.48;101287.50;5028786;28;20037;-48
2023/10/18 02:24:44;;;;;;;15.75;8.30;;;;;;;10.77;66.66;101283.50;5029307;28;20399;-47
2023/10/18 02:27:15;;;;;;;14.48;8.52;;;;;;;10.45;67.57;101281.13;5029842;28;20034;-46
2023/10/18 02:29:41;;;;;;;11.73;7.85;;;;;;;10.69;67.12;101278.13;5029507;28;20484;-47
2023/10/18 02:32:22;;;;;;;14.30;8.82;;;;;;;10.43;68.27;101276.75;5028504;28;20428;-46
2023/10/18 02:34:49;;;;;;;12.88;8.60;;;;;;;10.61;67.20;101271.91;5028648;28;20488;-46
2023/10/18 02:37:16;;;;;;;14.70;8.25;;;;;;;10.70;66.63;101279.00;5028436;28;20434;-47
2023/10/18 02:39:41;;;;;;;15.13;8.50;;;;;;;10.71;66.45;101268.59;5028936;28;20037;-51
2023/10/18 02:42:07;;;;;;;13.40;8.25;;;;;;;10.38;67.92;101258.38;5029482;28;20740;-44
2023/10/18 02:44:37;;;;;;;13.20;8.45;;;;;;;10.55;67.08;101263.97;5032208;28;20116;-45
2023/10/18 02:47:16;;;;;;;13.95;8.60;;;;;;;10.38;67.10;101255.78;5032059;28;20045;-48
2023/10/18 02:49:41;;;;;;;14.63;8.90;;;;;;;10.74;66.26;101253.00;5032348;28;20029;-46
2023/10/18 02:52:09;;;;;;;13.73;8.48;;;;;;;10.67;66.62;101253.75;5031592;28;20034;-47
2023/10/18 02:54:35;;;;;;;14.52;8.95;;;;;;;10.31;68.04;101240.84;5031928;28;20064;-45
2023/10/18 02:57:01;;;;;;;13.32;8.63;;;;;;;10.63;66.51;101235.41;5031580;28;20033;-45
2023/10/18 02:59:27;;;;;;;15.02;8.25;;;;;;;10.64;66.10;101240.66;5032469;28;20025;-47
2023/10/18 03:01:57;;;;;;;13.40;7.85;;;;;;;10.81;65.98;101236.63;5032482;28;20030;-49
2023/10/18 03:04:23;;;;;;;14.43;8.40;;;;;;;10.74;66.13;101233.88;5036027;28;20061;-49
2023/10/18 03:06:52;;;;;;;14.05;8.13;;;;;;;10.88;65.07;101229.78;5034989;28;20060;-48
2023/10/18 03:09:27;;;;;;;13.80;8.38;;;;;;;10.66;65.94;101232.88;5030496;28;20080;-44
2023/10/18 03:11:57;;;;;;;14.65;8.38;;;;;;;10.64;65.66;101221.53;5031750;28;20038;-46
2023/10/18 03:14:36;;;;;;;15.32;8.10;;;;;;;10.82;65.37;101211.41;5031311;28;20038;-48
2023/10/18 03:17:13;;;;;;;12.95;7.95;;;;;;;10.68;65.40;101212.91;5031675;28;20034;-47
2023/10/18 03:19:39;;;;;;;13.88;8.38;;;;;;;10.87;65.22;101213.25;5030235;28;20041;-47
2023/10/18 03:22:05;;;;;;;13.80;8.02;;;;;;;10.63;65.27;101210.22;5029693;28;20132;-47
2023/10/18 03:24:32;;;;;;;12.98;8.23;;;;;;;10.63;65.33;101212.81;5031425;28;20033;-44
2023/10/18 03:27:07;;;;;;;12.68;8.32;;;;;;;10.82;65.21;101198.38;5031415;28;20037;-45
2023/10/18 03:29:32;;;;;;;14.27;8.55;;;;;;;10.64;65.41;101192.84;5031481;28;20033;-48
2023/10/18 03:31:59;;;;;;;13.52;7.93;;;;;;;10.50;65.87;101182.16;5033564;28;20042;-49
2023/10/18 03:34:25;;;;;;;15.13;8.27;;;;;;;10.85;64.35;101188.91;5032103;28;20060;-45
2023/10/18 03:36:53;;;;;;;13.25;8.50;;;;;;;10.48;65.95;101178.66;5032310;28;20065;-45
2023/10/18 03:39:20;;;;;;;13.00;8.15;;;;;;;10.77;64.65;101180.06;5033266;28;20106;-44
2023/10/18 03:41:50;;;;;;;14.10;8.00;;;;;;;10.86;64.24;101169.75;5032303;28;20500;-48
2023/10/18 03:44:21;;;;;;;11.88;7.97;;;;;;;10.62;65.14;101171.94;5030444;28;20427;-47
2023/10/18 03:49:16;;;;;;;13.55;7.95;;;;;;;10.76;64.74;101159.16;5030562;28;20487;-46
2023/10/18 03:51:46;;;;;;;13.60;7.70;;;;;;;10.89;64.24;101154.19;5030571;28;20026;-48
2023/10/18 03:54:14;;;;;;;13.50;7.97;;;;;;;10.86;64.43;101158.44;5030247;28;20045;-45
2023/10/18 03:56:42;;;;;;;12.90;7.75;;;;;;;10.52;64.37;101152.66;5031181;28;20037;-47
2023/10/18 03:59:24;;;;;;;15.60;8.55;;;;;;;10.77;64.26;101163.53;5029078;28;20029;-48
2023/10/18 04:04:38;;;;;;;13.65;7.85;;;;;;;10.95;63.36;101149.06;5030891;28;20040;-46
2023/10/18 04:07:13;;;;;;;11.48;7.55;;;;;;;11.04;62.67;101137.88;5030704;28;20146;-46
2023/10/18 04:09:53;;;;;;;12.25;7.60;;;;;;;10.68;63.47;101138.16;5031171;28;20483;-45
2023/10/18 04:12:22;;;;;;;12.02;7.60;;;;;;;10.75;63.63;101142.63;5030386;28;20506;-46
2023/10/18 04:14:58;;;;;;;13.38;8.00;;;;;;;10.75;63.58;101141.75;5030548;28;20034;-46
2023/10/18 04:20:00;;;;;;;14.57;8.30;;;;;;;10.68;63.97;101138.16;5030734;28;20030;-45
2023/10/18 04:22:27;;;;;;;13.82;7.93;;;;;;;10.94;63.03;101141.19;5029668;28;20037;-45
2023/10/18 04:24:54;;;;;;;14.13;8.25;;;;;;;10.95;62.43;101132.53;5030300;28;20035;-48
2023/10/18 04:27:20;;;;;;;14.13;7.90;;;;;;;11.11;62.62;101134.50;5029757;28;20091;-45
2023/10/18 04:29:47;;;;;;;12.70;7.50;;;;;;;10.92;63.23;101129.84;5030202;28;20029;-43
2023/10/18 04:32:17;;;;;;;11.73;7.03;;;;;;;11.21;62.11;101122.50;5029469;28;20041;-47
2023/10/18 04:34:46;;;;;;;13.70;7.85;;;;;;;10.79;62.64;101115.78;5029983;28;20061;-47
2023/10/18 04:37:14;;;;;;;12.55;7.10;;;;;;;11.04;62.19;101116.16;5029770;28;20045;-44
2023/10/18 04:39:40;;;;;;;12.63;7.63;;;;;;;10.60;63.71;101112.81;5030319;28;20033;-45
2023/10/18 04:42:06;;;;;;;11.32;7.50;;;;;;;11.08;62.58;101107.50;5030244;28;20048;-48
2023/10/18 04:44:35;;;;;;;12.85;7.53;;;;;;;11.09;62.70;101096.22;5040170;28;20403;-48
2023/10/18 04:47:03;;;;;;;12.85;7.63;;;;;;;10.89;62.99;101099.41;5036118;28;20044;-46
2023/10/18 04:49:38;;;;;;;12.68;7.28;;;;;;;11.14;61.92;101103.25;5029891;28;20033;-44
2023/10/18 04:52:05;;;;;;;12.73;7.88;;;;;;;10.92;62.53;101094.22;5029467;28;20547;-46
2023/10/18 04:57:04;;;;;;;16.73;8.05;;;;;;;10.73;63.11;101086.97;5036024;28;20041;-51
2023/10/18 04:59:46;;;;;;;12.27;7.60;;;;;;;10.79;63.15;101078.38;5035238;28;20038;-49
2023/10/18 05:02:18;;;;;;;11.07;7.30;;;;;;;10.88;63.16;101075.91;5029348;28;20535;-48
2023/10/18 05:04:46;;;;;;;14.48;7.85;;;;;;;10.92;62.42;101072.47;5028997;28;20108;-46
2023/10/18 05:09:43;;;;;;;13.50;7.80;;;;;;;10.84;62.36;101051.50;5029636;28;20442;-46
2023/10/18 05:17:35;;;;;;;13.13;7.85;;;;;;;10.33;64.47;101041.13;5029333;28;20036;-47
2023/10/18 05:22:48;;;;;;;13.05;7.53;;;;;;;11.08;62.04;101039.69;5029381;28;20029;-51
2023/10/18 05:27:59;;;;;;;13.20;7.95;;;;;;;10.99;61.86;101033.47;5029571;28;20038;-47
2023/10/18 05:30:27;;;;;;;15.27;7.45;;;;;;;10.69;62.59;101034.75;5029315;28;20036;-47
2023/10/18 05:35:27;;;;;;;12.40;7.57;;;;;;;10.46;63.69;101027.44;5032192;28;20034;-47
2023/10/18 05:38:06;;;;;;;12.05;7.00;;;;;;;10.73;63.06;101020.91;5030736;28;20041;-43
2023/10/18 05:43:03;;;;;;;15.30;7.97;;;;;;;10.67;62.91;101026.03;5031910;28;20037;-48
2023/10/18 05:45:33;;;;;;;13.18;7.63;;;;;;;10.79;62.61;101019.28;5030046;28;20033;-45
2023/10/18 05:48:03;;;;;;;14.32;8.05;;;;;;;10.85;62.36;101018.50;5029979;28;20076;-47
2023/10/18 05:50:34;;;;;;;11.95;7.45;;;;;;;11.01;61.77;101016.97;5029028;28;20083;-46
2023/10/18 05:53:03;;;;;;;11.55;7.88;;;;;;;10.75;62.75;101014.84;5028747;28;20037;-48
2023/10/18 05:55:31;;;;;;;15.07;8.23;;;;;;;10.95;62.04;101017.75;5029024;28;20380;-45
2023/10/18 05:57:57;;;;;;;13.30;7.70;;;;;;;10.86;61.90;101015.00;5029617;28;20072;-48
2023/10/18 06:00:22;;;;;;;14.52;7.57;;;;;;;10.77;62.03;101005.31;5027502;28;20057;-48
2023/10/18 06:02:52;;;;;;;12.88;7.43;;;;;;;10.82;62.50;100997.56;5029332;28;20049;-48
2023/10/18 06:05:17;;;;;;;20.45;8.35;;;;;;;10.88;61.68;100993.31;5029528;28;20036;-45
2023/10/18 06:07:43;;;;;;;15.40;8.20;;;;;;;10.70;62.15;100994.78;5029910;28;20029;-43
2023/10/18 06:10:26;;;;;;;13.27;7.80;;;;;;;10.67;62.56;100994.75;5028634;28;20037;-42
2023/10/18 06:13:08;;;;;;;14.88;8.23;;;;;;;10.85;61.92;100997.63;5028976;28;20112;-43
2023/10/18 06:15:39;;;;;;;13.20;7.95;;;;;;;10.53;62.87;100984.09;5030385;28;20040;-47
2023/10/18 06:18:09;;;;;;;13.65;8.02;;;;;;;10.84;62.12;100993.25;5032441;28;20041;-47
2023/10/18 06:20:38;;;;;;;13.38;7.20;;;;;;;10.70;62.39;100989.56;5031677;28;20052;-46
2023/10/18 06:23:28;;;;;;;20.52;7.75;;;;;;;10.97;61.83;100985.63;5032695;28;20057;-43
2023/10/18 06:25:57;;;;;;;12.70;7.28;;;;;;;11.07;61.08;100985.72;5033160;28;20028;-42
2023/10/18 06:28:25;;;;;;;13.30;7.85;;;;;;;10.61;62.27;100974.69;5032784;28;20121;-43
2023/10/18 06:30:52;;;;;;;12.50;7.15;;;;;;;10.74;62.08;100973.09;5033052;28;20108;-43
2023/10/18 06:33:21;;;;;;;12.35;7.63;;;;;;;10.82;61.87;100971.47;5031662;28;20034;-49
2023/10/18 06:35:53;;;;;;;16.33;7.93;;;;;;;10.89;61.53;100969.00;5032503;28;20504;-45
2023/10/18 06:38:22;;;;;;;14.27;7.95;;;;;;;11.01;61.48;100970.00;5032368;28;20040;-45
2023/10/18 06:41:02;;;;;;;12.00;6.93;;;;;;;11.17;60.98;100965.00;5031349;28;20051;-43
2023/10/18 06:43:27;;;;;;;13.55;7.80;;;;;;;10.68;61.82;100968.66;5032320;28;20029;-45
2023/10/18 06:45:53;;;;;;;15.82;7.75;;;;;;;10.81;62.11;100964.50;5031050;28;20518;-45
2023/10/18 06:48:26;;;;;;;13.02;7.72;;;;;;;11.26;60.71;100959.91;5033054;28;20034;-51
2023/10/18 06:50:53;;;;;;;12.45;7.53;;;;;;;11.00;60.77;100953.47;5037680;28;20057;-48
2023/10/18 06:53:20;;;;;;;11.13;7.63;;;;;;;11.25;60.34;100952.03;5034388;28;20605;-42
2023/10/18 06:55:55;;;;;;;13.70;7.70;;;;;;;10.95;60.79;100949.94;5032714;28;20045;-46
2023/10/18 07:00:53;;;;;;;12.18;7.63;;;;;;;10.94;60.98;100946.44;5032030;28;20037;-43
2023/10/18 07:03:27;;;;;;;13.02;7.43;;;;;;;10.96;61.03;100943.88;5031091;28;20044;-49
2023/10/18 07:05:54;;;;;;;12.73;7.85;;;;;;;11.25;59.72;100921.59;5030559;28;20116;-46
2023/10/18 07:08:19;;;;;;;14.02;8.00;;;;;;;11.08;60.41;100933.59;5031395;28;20103;-46
2023/10/18 07:10:54;;;;;;;12.65;7.47;;;;;;;11.62;58.48;100933.31;5031939;28;20037;-46
2023/10/18 07:13:33;;;;;;;14.70;8.05;;;;;;;11.35;59.51;100931.28;5031109;28;20044;-48
2023/10/18 07:16:05;;;;;;;12.52;7.30;;;;;;;11.80;58.12;100935.25;5031571;28;20480;-46
2023/10/18 07:18:35;;;;;;;15.25;7.88;;;;;;;11.74;58.43;100929.97;5031343;28;20041;-43
2023/10/18 07:21:05;;;;;;;13.70;7.72;;;;;;;11.81;58.23;100930.91;5030837;28;20034;-44
2023/10/18 07:23:36;;;;;;;12.02;7.53;;;;;;;11.86;58.10;100916.16;5031303;28;20032;-45
2023/10/18 07:26:02;;;;;;;12.02;7.68;;;;;;;11.74;58.05;100925.63;5031197;28;20090;-40
2023/10/18 07:28:29;;;;;;;12.68;7.70;;;;;;;12.05;57.14;100911.09;5030912;28;20044;-49
2023/10/18 07:30:55;;;;;;;12.20;7.43;;;;;;;11.92;57.42;100918.81;5031401;28;20037;-48
2023/10/18 07:33:23;;;;;;;12.27;7.13;;;;;;;12.02;57.35;100910.19;5030655;28;20037;-44
2023/10/18 07:35:49;;;;;;;12.38;7.55;;;;;;;12.04;57.17;100908.47;5031206;28;20452;-47
2023/10/18 07:38:14;;;;;;;12.68;7.65;;;;;;;11.92;57.71;100904.03;5030767;28;20037;-49
2023/10/18 07:40:42;;;;;;;12.80;7.30;;;;;;;11.83;57.93;100908.31;5031581;28;20175;-45
2023/10/18 07:43:12;;;;;;;13.13;7.80;;;;;;;11.94;57.16;100901.44;5030942;28;20034;-43
2023/10/18 07:45:39;;;;;;;14.93;7.70;;;;;;;12.22;56.66;100897.28;5031714;28;20079;-44
2023/10/18 07:48:05;;;;;;;13.77;7.57;;;;;;;11.92;57.05;100892.69;5031189;28;20111;-41
2023/10/18 07:53:06;;;;;;;11.43;7.45;;;;;;;12.22;56.48;100882.47;5031723;28;20041;-46
2023/10/18 07:55:37;;;;;;;13.73;7.18;;;;;;;11.99;56.85;100878.81;5034598;28;20171;-50
2023/10/18 07:58:17;;;;;;;13.10;7.50;;;;;;;12.18;56.37;100871.13;5033109;28;20038;-44
2023/10/18 08:01:46;;;;;;;13.18;7.10;;;;;;;12.18;56.07;100872.88;5035327;28;20025;-45
2023/10/18 08:03:32;;;;;;;10.32;6.93;;;;;;;12.46;55.50;100872.16;5030459;28;20038;-43
2023/10/18 08:05:59;;;;;;;12.32;7.30;;;;;;;12.78;55.02;100871.44;5031299;28;20041;-44
2023/10/18 08:08:25;;;;;;;13.80;7.25;;;;;;;12.75;54.71;100871.44;5031050;28;20029;-46
2023/10/18 08:10:55;;;;;;;14.95;7.50;;;;;;;12.72;54.32;100861.84;5031032;28;20052;-46
2023/10/18 08:13:31;;;;;;;15.10;6.97;;;;;;;13.10;53.82;100854.13;5030449;28;20426;-47
2023/10/18 08:16:01;;;;;;;12.57;7.38;;;;;;;12.94;54.25;100861.03;5031021;28;20065;-46
2023/10/18 08:18:52;;;;;;;11.73;7.25;;;;;;;12.87;53.85;100863.63;5030933;28;20445;-48
2023/10/18 08:21:26;;;;;;;11.77;7.25;;;;;;;12.86;53.90;100857.53;5030463;28;20033;-41
2023/10/18 08:23:57;;;;;;;17.17;7.75;;;;;;;13.34;52.61;100854.22;5030741;28;20396;-46
2023/10/18 08:26:26;;;;;;;13.23;7.80;;;;;;;13.29;53.12;100853.34;5029958;28;20120;-49
2023/10/18 08:28:53;;;;;;;11.63;6.70;;;;;;;12.59;54.10;100842.59;5030197;28;20037;-44
2023/10/18 08:31:32;;;;;;;10.88;7.10;;;;;;;12.99;53.75;100838.38;5029649;28;20458;-45
2023/10/18 08:34:14;;;;;;;13.57;7.25;;;;;;;13.37;52.86;100843.72;5030079;28;20495;-41
2023/10/18 08:36:45;;;;;;;12.77;7.45;;;;;;;13.28;53.26;100830.66;5030213;28;20033;-44
2023/10/18 08:39:12;;;;;;;11.98;7.20;;;;;;;13.47;52.76;100815.84;5029669;28;20030;-46
2023/10/18 08:41:54;;;;;;;12.77;7.50;;;;;;;13.30;53.66;100814.91;5029276;28;20098;-44
2023/10/18 08:44:24;;;;;;;11.82;7.07;;;;;;;12.87;53.86;100816.53;5031351;28;20042;-46
2023/10/18 08:47:03;;;;;;;11.35;7.47;;;;;;;13.39;52.90;100804.47;5030971;28;20144;-46
2023/10/18 08:49:32;;;;;;;11.75;7.13;;;;;;;13.59;52.11;100812.34;5030644;28;20030;-45
2023/10/18 08:52:08;;;;;;;12.80;7.72;;;;;;;13.52;52.29;100807.97;5029810;28;20037;-46
2023/10/18 08:54:36;;;;;;;14.45;6.88;;;;;;;13.63;52.46;100798.38;5029542;28;20037;-50
2023/10/18 08:57:06;;;;;;;12.68;7.22;;;;;;;13.56;52.19;100789.63;5029599;28;20038;-43
2023/10/18 08:59:49;;;;;;;12.88;7.00;;;;;;;13.38;52.21;100797.47;5030006;28;20034;-46
2023/10/18 09:02:20;;;;;;;14.10;7.13;;;;;;;13.63;51.11;100791.38;5029051;28;20037;-43
2023/10/18 09:04:53;;;;;;;13.43;7.40;;;;;;;13.85;51.19;100783.47;5030208;28;20499;-41
2023/10/18 09:07:22;;;;;;;12.52;7.40;;;;;;;13.97;50.68;100786.09;5029842;28;20643;-46
2023/10/18 09:09:57;;;;;;;13.38;7.18;;;;;;;13.81;50.59;100774.75;5029872;28;20518;-49
2023/10/18 09:13:22;;;;;;;11.52;7.20;;;;;;;14.03;50.22;100781.69;5029194;28;20431;-46
2023/10/18 09:15:28;;;;;;;16.52;7.55;;;;;;;13.46;50.91;100785.28;5028842;28;20048;-44
2023/10/18 09:18:03;;;;;;;10.98;7.18;;;;;;;13.54;51.31;100778.28;5029431;28;20105;-49
2023/10/18 09:20:29;;;;;;;14.52;7.63;;;;;;;13.40;50.81;100759.97;5029151;28;20440;-44
2023/10/18 09:23:01;;;;;;;13.10;6.95;;;;;;;13.38;51.15;100752.97;5029535;28;20029;-45
2023/10/18 09:28:11;;;;;;;;;;;;;;;13.72;50.77;100752.06;5029420;28;20036;-49
2023/10/18 09:30:36;;;;;;;11.90;6.63;;;;;;;13.67;50.88;100755.56;5029388;28;19931;-45
2023/10/18 09:33:03;;;;;;;12.73;7.35;;;;;;;13.11;51.50;100745.09;5029216;28;20081;-46
2023/10/18 09:35:30;;;;;;;11.15;7.30;;;;;;;13.50;51.04;100737.25;5029874;28;20045;-44
2023/10/18 09:38:01;;;;;;;11.25;7.65;;;;;;;13.72;51.45;100735.50;5030452;28;20046;-46
2023/10/18 09:40:29;;;;;;;14.43;7.80;;;;;;;13.72;51.63;100725.00;5030233;28;20087;-42
2023/10/18 09:42:54;;;;;;;11.43;7.22;;;;;;;13.95;51.19;100725.81;5030527;28;20029;-45
2023/10/18 09:45:20;;;;;;;11.80;7.57;;;;;;;13.42;51.84;100727.66;5029950;28;20037;-41
2023/10/18 09:47:46;;;;;;;13.57;7.60;;;;;;;14.33;50.58;100695.97;5030548;28;20033;-44
2023/10/18 09:50:23;;;;;;;11.68;7.55;;;;;;;14.45;50.77;100694.19;5031178;28;20041;-42
2023/10/18 09:52:56;;;;;;;12.18;7.70;;;;;;;14.47;50.53;100686.31;5034567;28;20462;-47
2023/10/18 09:55:25;;;;;;;12.73;7.75;;;;;;;14.54;50.45;100681.03;5035037;28;20033;-45
2023/10/18 09:58:05;;;;;;;11.48;7.47;;;;;;;14.38;50.79;100684.63;5035374;28;20151;-47
2023/10/18 10:00:44;;;;;;;12.07;7.50;;;;;;;14.58;50.51;100684.47;5035126;28;20403;-43
2023/10/18 10:03:10;;;;;;;12.88;7.78;;;;;;;14.39;50.84;100678.50;5033725;28;20123;-43
2023/10/18 10:05:42;;;;;;;11.40;7.38;;;;;;;14.90;49.93;100666.78;5033692;28;20063;-44
2023/10/18 10:08:09;;;;;;;16.73;8.18;;;;;;;14.40;51.15;100669.72;5032752;28;20113;-45
2023/10/18 10:10:44;;;;;;;10.95;7.63;;;;;;;14.69;49.76;100669.56;5032837;28;20029;-50
2023/10/18 10:13:27;;;;;;;14.60;7.75;;;;;;;14.45;50.30;100662.72;5032366;28;20067;-42
2023/10/18 10:16:03;;;;;;;10.90;7.22;;;;;;;14.74;50.01;100649.41;5033164;28;20056;-44
2023/10/18 10:18:32;;;;;;;13.68;8.13;;;;;;;15.16;49.63;100652.56;5032494;28;20041;-47
2023/10/18 10:21:03;;;;;;;14.18;8.60;;;;;;;14.83;50.18;100656.31;5031602;28;20446;-47
2023/10/18 10:23:32;;;;;;;12.52;7.90;;;;;;;14.61;50.40;100643.38;5032168;28;20048;-46
2023/10/18 10:26:11;;;;;;;13.45;7.72;;;;;;;15.08;50.13;100641.25;5032904;28;20037;-47
2023/10/18 10:31:51;;;;;;;13.55;8.00;;;;;;;15.14;49.77;100636.81;5032603;28;20025;-43
2023/10/18 10:34:24;;;;;;;12.23;7.40;;;;;;;14.82;50.05;100634.47;5033587;28;20046;-42
2023/10/18 10:36:50;;;;;;;11.40;7.57;;;;;;;14.83;50.15;100632.72;5035515;28;20053;-43
2023/10/18 10:39:30;;;;;;;17.33;7.68;;;;;;;14.67;50.99;100621.47;5032569;28;20064;-44
2023/10/18 10:42:01;;;;;;;12.70;7.60;;;;;;;15.10;50.71;100616.75;5033967;28;20128;-41
2023/10/18 10:44:30;;;;;;;12.50;7.75;;;;;;;15.21;50.30;100598.25;5035364;28;20065;-42
2023/10/18 10:47:31;;;;;;;12.10;7.28;;;;;;;15.67;49.61;100596.91;5032784;28;20041;-44
2023/10/18 10:50:00;;;;;;;11.23;7.40;;;;;;;15.74;49.17;100593.28;5025233;28;20049;-43
2023/10/18 10:52:30;;;;;;;11.35;7.63;;;;;;;15.88;49.14;100582.63;5031943;28;20030;-43
2023/10/18 10:55:18;;;;;;;10.85;7.20;;;;;;;16.20;48.74;100567.28;5032017;28;20076;-44
2023/10/18 10:57:46;;;;;;;13.65;7.80;;;;;;;15.77;49.07;100561.75;5032108;28;20036;-44
2023/10/18 11:03:06;;;;;;;14.65;7.93;;;;;;;16.08;48.53;100556.06;5030687;28;20088;-42
2023/10/18 11:05:36;;;;;;;10.82;7.30;;;;;;;16.08;48.60;100546.41;5031752;28;20437;-44
2023/10/18 11:08:01;;;;;;;13.40;8.07;;;;;;;16.00;48.10;100553.53;5031600;28;20033;-56
2023/10/18 11:10:28;;;;;;;19.52;7.65;;;;;;;16.08;48.41;100546.41;5031965;28;20044;-44
2023/10/18 11:12:54;;;;;;;13.02;7.30;;;;;;;16.32;48.00;100546.94;5031700;28;20511;-53
2023/10/18 11:15:27;;;;;;;11.45;7.57;;;;;;;16.56;47.38;100543.94;5031411;28;20038;-43
2023/10/18 11:17:53;;;;;;;11.93;7.72;;;;;;;15.71;48.87;100532.03;5032024;28;20036;-44
2023/10/18 11:20:29;;;;;;;13.10;8.00;;;;;;;15.95;48.26;100531.69;5031422;28;20030;-48
2023/10/18 11:22:56;;;;;;;11.70;7.70;;;;;;;16.04;48.08;100520.19;5031401;28;20092;-39
2023/10/18 11:25:30;;;;;;;13.70;7.53;;;;;;;16.29;47.94;100515.41;5030762;28;20044;-43
2023/10/18 11:28:10;;;;;;;14.15;7.90;;;;;;;16.51;47.76;100506.28;5036739;28;20049;-43
2023/10/18 11:30:37;;;;;;;11.30;7.38;;;;;;;16.20;47.88;100493.63;5035878;28;20057;-45
2023/10/18 11:33:03;;;;;;;15.43;8.05;;;;;;;16.41;48.12;100491.53;5034362;28;20029;-47
2023/10/18 11:35:42;;;;;;;14.55;8.02;;;;;;;16.39;47.89;100486.31;5032149;28;20510;-43
2023/10/18 11:38:11;;;;;;;12.13;7.57;;;;;;;16.49;47.39;100479.13;5031457;28;20471;-44
2023/10/18 11:40:48;;;;;;;11.55;7.30;;;;;;;16.05;48.10;100470.19;5031959;28;20470;-45
2023/10/18 11:43:25;;;;;;;16.75;7.68;;;;;;;16.43;48.10;100459.06;5031326;28;20054;-45
2023/10/18 11:46:05;;;;;;;10.88;7.43;;;;;;;16.27;47.81;100459.34;5029985;28;20107;-42
2023/10/18 11:48:35;;;;;;;11.65;7.43;;;;;;;16.01;49.40;100452.72;5031313;28;20026;-43
2023/10/18 11:51:02;;;;;;;11.20;7.25;;;;;;;16.22;48.89;100457.63;5031272;28;20060;-45
2023/10/18 11:53:28;;;;;;;12.85;7.63;;;;;;;16.08;48.81;100446.50;5030684;28;20111;-50
2023/10/18 11:56:00;;;;;;;14.65;8.00;;;;;;;16.26;48.62;100447.94;5029568;28;20033;-49
2023/10/18 11:58:28;;;;;;;11.43;7.32;;;;;;;16.53;48.13;100436.06;5030647;28;20439;-48
2023/10/18 12:01:01;;;;;;;12.85;7.60;;;;;;;16.20;48.73;100437.53;5030781;28;20083;-45
2023/10/18 12:03:27;;;;;;;14.27;7.85;;;;;;;16.31;48.80;100422.44;5030560;28;20037;-45
2023/10/18 12:05:57;;;;;;;12.32;7.82;;;;;;;16.33;49.30;100412.75;5031531;28;20041;-46
2023/10/18 12:08:23;;;;;;;14.45;7.93;;;;;;;16.90;48.49;100415.22;5030492;28;20057;-45
2023/10/18 12:10:55;;;;;;;14.77;7.60;;;;;;;16.78;48.41;100416.31;5030714;28;20123;-46
2023/10/18 12:13:20;;;;;;;11.20;7.25;;;;;;;16.61;49.21;100405.25;5029481;28;20519;-45